Aviation Digital Data Service (ADDS)

Output produced by METARs form (1236 UTC 14 February 2016)
found at http://aviationweather.gov/adds/metars/
 
KRWI 141145Z 1412/1512 35008KT P6SM SKC 
     FM141400 04010KT P6SM FEW150 
     FM142100 08007KT P6SM BKN100 
     FM150400 09008KT P6SM OVC045 
     FM150800 06008KT 5SM -SN OVC030